createdAt,value
2018-08-09T00:00:09.344Z,11.63
2018-08-09T00:02:41.975Z,12.63
2018-08-09T00:05:10.451Z,12.10
2018-08-09T00:07:42.537Z,13.60
2018-08-09T00:10:11.051Z,12.37
2018-08-09T00:12:39.696Z,12.82
2018-08-09T00:15:08.154Z,11.83
2018-08-09T00:17:36.553Z,13.00
2018-08-09T00:20:05.156Z,13.25
2018-08-09T00:22:33.616Z,12.07
2018-08-09T00:25:01.989Z,12.00
2018-08-09T00:27:30.450Z,12.85
2018-08-09T00:29:58.941Z,13.30
2018-08-09T00:32:27.369Z,13.17
2018-08-09T00:34:55.776Z,13.40
2018-08-09T00:37:24.178Z,12.67
2018-08-09T00:39:52.648Z,14.35
2018-08-09T00:42:21.052Z,12.80
2018-08-09T00:44:49.586Z,14.07
2018-08-09T00:47:18.685Z,13.10
2018-08-09T00:49:47.269Z,13.83
2018-08-09T00:52:15.620Z,13.30
2018-08-09T00:54:43.983Z,13.60
2018-08-09T00:57:12.448Z,13.47
2018-08-09T00:59:44.674Z,13.23
2018-08-09T01:02:13.307Z,12.45
2018-08-09T01:04:41.720Z,12.97
2018-08-09T01:07:10.112Z,13.50
2018-08-09T01:09:38.534Z,13.50
2018-08-09T01:12:07.027Z,13.80
2018-08-09T01:14:36.454Z,13.60
2018-08-09T01:17:04.902Z,13.37
2018-08-09T01:19:33.341Z,12.90
2018-08-09T01:22:01.744Z,14.00
2018-08-09T01:24:30.157Z,13.00
2018-08-09T01:26:58.671Z,14.40
2018-08-09T01:29:27.067Z,14.30
2018-08-09T01:31:55.477Z,14.47
2018-08-09T01:34:23.916Z,14.50
2018-08-09T01:36:52.300Z,14.90
2018-08-09T01:39:20.703Z,14.10
2018-08-09T01:42:00.292Z,15.27
2018-08-09T01:44:28.724Z,14.77
2018-08-09T01:46:57.745Z,14.23
2018-08-09T01:49:26.188Z,14.50
2018-08-09T01:51:54.705Z,14.93
2018-08-09T01:54:24.192Z,14.70
2018-08-09T01:56:56.988Z,14.53
2018-08-09T01:59:26.150Z,14.07
2018-08-09T02:01:55.239Z,14.63
2018-08-09T02:04:23.666Z,14.60
2018-08-09T02:06:52.164Z,14.37
2018-08-09T02:09:25.993Z,14.40
2018-08-09T02:11:54.432Z,15.37
2018-08-09T02:14:22.852Z,14.77
2018-08-09T02:16:51.253Z,14.67
2018-08-09T02:19:19.674Z,14.40
2018-08-09T02:21:48.720Z,14.80
2018-08-09T02:24:17.118Z,15.23
2018-08-09T02:26:45.608Z,16.07
2018-08-09T02:29:14.052Z,16.02
2018-08-09T02:31:42.469Z,15.57
2018-08-09T02:34:10.866Z,15.40
2018-08-09T02:36:39.232Z,16.10
2018-08-09T02:39:08.929Z,14.05
2018-08-09T02:41:37.327Z,15.13
2018-08-09T02:44:05.764Z,15.27
2018-08-09T02:46:34.352Z,15.23
2018-08-09T02:49:02.722Z,15.30
2018-08-09T02:51:31.138Z,15.60
2018-08-09T02:53:59.560Z,16.50
2018-08-09T02:56:28.004Z,15.33
2018-08-09T02:58:56.553Z,15.57
2018-08-09T03:01:24.992Z,16.10
2018-08-09T03:03:53.454Z,15.23
2018-08-09T03:06:21.903Z,16.33
2018-08-09T03:08:50.323Z,16.40
2018-08-09T03:11:18.787Z,14.70
2018-08-09T03:13:47.227Z,16.27
2018-08-09T03:16:15.648Z,15.00
2018-08-09T03:18:44.088Z,15.00
2018-08-09T03:21:12.528Z,15.50
2018-08-09T03:23:40.964Z,15.77
2018-08-09T03:26:09.433Z,14.68
2018-08-09T03:28:37.829Z,15.40
2018-08-09T03:31:06.488Z,16.87
2018-08-09T03:33:34.855Z,14.60
2018-08-09T03:36:03.315Z,15.70
2018-08-09T03:38:31.745Z,15.47
2018-08-09T03:41:00.172Z,16.33
2018-08-09T03:43:28.656Z,16.35
2018-08-09T03:45:57.037Z,15.75
2018-08-09T03:48:25.384Z,16.00
2018-08-09T03:50:53.858Z,15.17
2018-08-09T03:53:22.562Z,15.80
2018-08-09T03:55:51.070Z,14.93
2018-08-09T03:58:19.552Z,15.03
2018-08-09T04:00:48.156Z,15.77
2018-08-09T04:03:16.683Z,15.67
2018-08-09T04:05:45.109Z,16.67
2018-08-09T04:08:13.944Z,15.30
2018-08-09T04:10:42.410Z,14.40
2018-08-09T04:13:10.923Z,16.23
2018-08-09T04:15:39.426Z,15.87
2018-08-09T04:18:08.084Z,15.50
2018-08-09T04:20:36.884Z,15.35
2018-08-09T04:23:05.372Z,14.73
2018-08-09T04:25:33.791Z,14.83
2018-08-09T04:28:02.569Z,14.97
2018-08-09T04:30:30.991Z,15.07
2018-08-09T04:32:59.728Z,15.10
2018-08-09T04:35:28.143Z,14.77
2018-08-09T04:37:56.610Z,13.60
2018-08-09T04:40:24.996Z,14.37
2018-08-09T04:42:54.372Z,14.17
2018-08-09T04:45:22.890Z,14.53
2018-08-09T04:47:51.259Z,15.03
2018-08-09T04:50:19.716Z,14.65
2018-08-09T04:52:48.110Z,14.50
2018-08-09T04:55:16.552Z,15.85
2018-08-09T04:57:45.018Z,14.33
2018-08-09T05:00:13.457Z,15.43
2018-08-09T05:02:41.865Z,16.40
2018-08-09T05:05:10.336Z,15.93
2018-08-09T05:07:38.810Z,15.80
2018-08-09T05:10:09.196Z,14.53
2018-08-09T05:12:41.046Z,15.70
2018-08-09T05:15:09.971Z,15.20
2018-08-09T05:17:38.356Z,14.73
2018-08-09T05:20:07.190Z,16.43
2018-08-09T05:22:35.791Z,15.20
2018-08-09T05:25:04.823Z,15.20
2018-08-09T05:27:34.797Z,15.75
2018-08-09T05:30:03.570Z,15.43
2018-08-09T05:32:31.995Z,14.70
2018-08-09T05:35:01.594Z,15.17
2018-08-09T05:37:30.517Z,15.33
2018-08-09T05:39:58.957Z,16.60
2018-08-09T05:42:27.448Z,15.05
2018-08-09T05:44:55.840Z,14.90
2018-08-09T05:47:24.288Z,15.40
2018-08-09T05:49:52.712Z,16.23
2018-08-09T05:52:21.180Z,15.30
2018-08-09T05:54:49.665Z,16.50
2018-08-09T05:57:18.149Z,16.83
2018-08-09T05:59:46.600Z,16.70
2018-08-09T06:02:15.075Z,17.47
2018-08-09T06:04:43.501Z,16.10
2018-08-09T06:07:15.329Z,15.80
2018-08-09T06:09:43.830Z,15.97
2018-08-09T06:12:12.305Z,16.20
2018-08-09T06:14:40.712Z,15.37
2018-08-09T06:17:09.222Z,15.23
2018-08-09T06:19:37.613Z,15.00
2018-08-09T06:22:06.492Z,16.43
2018-08-09T06:24:34.887Z,17.07
2018-08-09T06:27:03.832Z,15.63
2018-08-09T06:29:32.474Z,16.70
2018-08-09T06:32:00.865Z,15.23
2018-08-09T06:34:29.301Z,15.58
2018-08-09T06:36:57.773Z,15.93
2018-08-09T06:39:26.369Z,15.47
2018-08-09T06:41:54.812Z,16.52
2018-08-09T06:44:23.237Z,14.70
2018-08-09T06:46:51.655Z,15.47
2018-08-09T06:49:20.126Z,15.23
2018-08-09T06:51:49.714Z,14.53
2018-08-09T06:54:18.143Z,15.53
2018-08-09T06:56:48.847Z,13.90
2018-08-09T06:59:17.201Z,15.37
2018-08-09T07:01:45.616Z,14.18
2018-08-09T07:04:14.888Z,14.53
2018-08-09T07:06:43.474Z,13.97
2018-08-09T07:09:12.041Z,14.23
2018-08-09T07:11:40.457Z,13.47
2018-08-09T07:14:08.851Z,13.60
2018-08-09T07:16:37.296Z,12.40
2018-08-09T07:19:05.896Z,13.10
2018-08-09T07:21:34.335Z,13.03
2018-08-09T07:24:02.829Z,12.13
2018-08-09T07:26:31.323Z,12.87
2018-08-09T07:28:59.743Z,12.55
2018-08-09T07:31:28.130Z,11.80
2018-08-09T07:33:56.589Z,12.20
2018-08-09T07:36:25.097Z,12.60
2018-08-09T07:38:53.536Z,11.20
2018-08-09T07:41:22.041Z,10.20
2018-08-09T07:43:50.477Z,10.25
2018-08-09T07:46:18.871Z,11.47
2018-08-09T07:48:47.413Z,11.30
2018-08-09T07:51:15.822Z,11.77
2018-08-09T07:53:44.252Z,10.57
2018-08-09T07:56:12.740Z,11.23
2018-08-09T07:58:41.157Z,10.93
2018-08-09T08:01:09.848Z,9.60
2018-08-09T08:03:38.327Z,10.60
2018-08-09T08:06:07.103Z,9.73
2018-08-09T08:08:35.560Z,9.87
2018-08-09T08:11:04.869Z,9.37
2018-08-09T08:13:33.723Z,10.17
2018-08-09T08:16:02.295Z,9.53
2018-08-09T08:18:30.691Z,9.57
2018-08-09T08:20:59.157Z,10.07
2018-08-09T08:23:27.591Z,10.03
2018-08-09T08:25:56.100Z,9.07
2018-08-09T08:28:24.558Z,8.80
2018-08-09T08:30:53.777Z,9.03
2018-08-09T08:33:22.321Z,9.70
2018-08-09T08:35:50.939Z,7.77
2018-08-09T08:38:19.682Z,9.68
2018-08-09T08:40:48.149Z,8.13
2018-08-09T08:43:16.572Z,8.30
2018-08-09T08:45:45.037Z,8.33
2018-08-09T08:48:13.466Z,8.57
2018-08-09T08:50:42.428Z,7.57
2018-08-09T08:53:10.869Z,7.73
2018-08-09T08:55:39.239Z,8.43
2018-08-09T08:58:07.717Z,8.70
2018-08-09T09:00:36.170Z,8.53
2018-08-09T09:03:04.688Z,7.90
2018-08-09T09:05:33.148Z,7.75
2018-08-09T09:08:01.558Z,8.17
2018-08-09T09:10:30.038Z,9.20
2018-08-09T09:12:58.508Z,7.35
2018-08-09T09:15:26.924Z,7.50
2018-08-09T09:17:55.340Z,7.83
2018-08-09T09:20:23.779Z,7.67
2018-08-09T09:22:52.243Z,6.70
2018-08-09T09:25:21.421Z,7.50
2018-08-09T09:27:49.850Z,8.37
2018-08-09T09:30:18.691Z,7.30
2018-08-09T09:32:47.348Z,6.97
2018-08-09T09:35:16.183Z,8.03
2018-08-09T09:37:45.258Z,7.70
2018-08-09T09:40:13.687Z,7.60
2018-08-09T09:42:42.610Z,6.47
2018-08-09T09:45:11.002Z,6.77
2018-08-09T09:47:39.430Z,7.30
2018-08-09T09:50:09.286Z,6.43
2018-08-09T09:52:37.748Z,6.97
2018-08-09T09:55:06.293Z,6.63
2018-08-09T09:57:34.819Z,6.23
2018-08-09T10:00:03.905Z,7.20
2018-08-09T10:02:32.293Z,6.90
2018-08-09T10:05:00.716Z,6.53
2018-08-09T10:07:29.081Z,6.40
2018-08-09T10:09:57.476Z,6.80
2018-08-09T10:12:25.899Z,7.80
2018-08-09T10:14:54.341Z,6.58
2018-08-09T10:17:22.829Z,6.13
2018-08-09T10:19:51.260Z,6.73
2018-08-09T10:22:19.685Z,5.80
2018-08-09T10:24:48.114Z,6.00
2018-08-09T10:27:16.571Z,6.70
2018-08-09T10:29:44.949Z,6.67
2018-08-09T10:32:13.432Z,6.20
2018-08-09T10:34:41.858Z,5.90
2018-08-09T10:37:10.309Z,6.43
2018-08-09T10:39:38.686Z,6.00
2018-08-09T10:42:07.111Z,5.70
2018-08-09T10:44:35.574Z,5.60
2018-08-09T10:47:04.141Z,6.20
2018-08-09T10:49:32.564Z,6.30
2018-08-09T10:52:00.940Z,6.10
2018-08-09T10:54:29.360Z,6.20
2018-08-09T10:56:57.821Z,6.00
2018-08-09T10:59:26.261Z,6.40
2018-08-09T11:01:54.688Z,6.65
2018-08-09T11:04:23.096Z,6.50
2018-08-09T11:06:51.470Z,6.93
2018-08-09T11:09:19.894Z,6.90
2018-08-09T11:11:48.353Z,7.40
2018-08-09T11:14:16.814Z,7.17
2018-08-09T11:16:45.207Z,7.27
2018-08-09T11:19:13.671Z,6.62
2018-08-09T11:21:42.068Z,6.77
2018-08-09T11:24:10.459Z,6.37
2018-08-09T11:26:40.476Z,6.40
2018-08-09T11:29:08.875Z,6.00
2018-08-09T11:31:37.288Z,7.33
2018-08-09T11:34:05.788Z,6.63
2018-08-09T11:36:34.169Z,6.43
2018-08-09T11:39:02.657Z,6.83
2018-08-09T11:41:31.065Z,6.20
2018-08-09T11:43:59.453Z,6.53
2018-08-09T11:46:27.932Z,6.23
2018-08-09T11:48:56.479Z,6.90
2018-08-09T11:51:24.889Z,6.47
2018-08-09T11:53:53.304Z,5.30
2018-08-09T11:56:21.693Z,6.50
2018-08-09T11:58:50.055Z,6.00
2018-08-09T12:01:18.606Z,6.55
2018-08-09T12:03:47.070Z,6.43
2018-08-09T12:06:15.534Z,5.90
2018-08-09T12:08:43.896Z,6.60
2018-08-09T12:11:12.322Z,4.80
2018-08-09T12:13:40.816Z,5.77
2018-08-09T12:16:09.273Z,6.03
2018-08-09T12:18:37.654Z,5.33
2018-08-09T12:21:06.983Z,6.17
2018-08-09T12:23:35.901Z,6.47
2018-08-09T12:26:04.420Z,5.58
2018-08-09T12:28:32.807Z,5.60
2018-08-09T12:31:03.368Z,5.20
2018-08-09T12:33:31.817Z,5.65
2018-08-09T12:36:00.227Z,5.67
2018-08-09T12:38:29.335Z,5.27
2018-08-09T12:40:59.531Z,4.53
2018-08-09T12:43:27.993Z,4.83
2018-08-09T12:45:56.415Z,5.30
2018-08-09T12:48:24.919Z,4.90
2018-08-09T12:50:53.391Z,4.60
2018-08-09T12:53:21.834Z,5.00
2018-08-09T12:55:50.224Z,4.60
2018-08-09T12:58:18.696Z,5.00
2018-08-09T13:00:47.133Z,4.73
2018-08-09T13:03:15.701Z,4.60
2018-08-09T13:05:44.157Z,4.10
2018-08-09T13:08:12.633Z,4.10
2018-08-09T13:10:41.102Z,5.03
2018-08-09T13:13:09.568Z,5.20
2018-08-09T13:15:38.021Z,5.47
2018-08-09T13:18:08.544Z,5.30
2018-08-09T13:20:37.013Z,5.53
2018-08-09T13:23:05.533Z,4.90
2018-08-09T13:25:34.042Z,5.77
2018-08-09T13:28:02.558Z,5.17
2018-08-09T13:30:31.688Z,7.17
2018-08-09T13:33:00.848Z,5.00
2018-08-09T13:35:29.619Z,3.17
2018-08-09T13:37:58.201Z,3.60
2018-08-09T13:40:26.668Z,2.77
2018-08-09T13:43:01.079Z,3.13
2018-08-09T13:45:29.631Z,2.85
2018-08-09T13:47:58.169Z,2.50
2018-08-09T13:50:26.618Z,2.90
2018-08-09T13:52:55.026Z,2.20
2018-08-09T13:55:23.463Z,2.80
2018-08-09T13:57:52.004Z,2.57
2018-08-09T14:00:20.430Z,3.00
2018-08-09T14:02:49.036Z,2.70
2018-08-09T14:05:17.572Z,2.63
2018-08-09T14:07:46.461Z,2.37
2018-08-09T14:10:14.990Z,2.73
2018-08-09T14:12:43.473Z,2.10
2018-08-09T14:15:13.643Z,2.20
2018-08-09T14:17:42.022Z,2.50
2018-08-09T14:20:14.606Z,2.57
2018-08-09T14:22:43.088Z,2.85
2018-08-09T14:25:11.943Z,2.85
2018-08-09T14:27:40.492Z,2.97
2018-08-09T14:30:12.057Z,3.07
2018-08-09T14:32:40.513Z,3.33
2018-08-09T14:35:11.596Z,3.63
2018-08-09T14:37:40.539Z,3.60
2018-08-09T14:40:10.045Z,3.50
2018-08-09T14:42:38.676Z,3.83
2018-08-09T14:45:14.996Z,3.13
2018-08-09T14:47:44.740Z,4.00
2018-08-09T14:50:16.740Z,4.27
2018-08-09T14:52:45.224Z,3.70
2018-08-09T14:55:13.908Z,3.35
2018-08-09T14:57:45.313Z,4.27
2018-08-09T15:03:01.305Z,3.53
2018-08-09T15:05:29.768Z,3.17
2018-08-09T15:07:58.225Z,3.33
2018-08-09T15:10:27.917Z,3.10
2018-08-09T15:12:56.433Z,3.97
2018-08-09T15:15:24.952Z,3.90
2018-08-09T15:17:53.451Z,3.43
2018-08-09T15:20:21.910Z,3.80
2018-08-09T15:22:50.480Z,2.80
2018-08-09T15:25:18.921Z,2.57
2018-08-09T15:27:47.682Z,2.80
2018-08-09T15:30:17.936Z,3.13
2018-08-09T15:32:46.893Z,3.00
2018-08-09T15:35:15.562Z,3.08
2018-08-09T15:37:44.605Z,3.40
2018-08-09T15:40:13.805Z,3.30
2018-08-09T15:42:43.096Z,2.90
2018-08-09T15:45:13.293Z,2.73
2018-08-09T15:47:42.112Z,3.13
2018-08-09T15:50:13.688Z,3.50
2018-08-09T15:52:42.669Z,3.87
2018-08-09T15:55:11.358Z,3.25
2018-08-09T15:57:40.954Z,3.53
2018-08-09T16:00:12.789Z,3.43
2018-08-09T16:02:41.670Z,3.30
2018-08-09T16:05:11.121Z,2.33
2018-08-09T16:07:39.648Z,2.83
2018-08-09T16:10:11.733Z,2.30
2018-08-09T16:12:41.012Z,2.53
2018-08-09T16:15:13.806Z,2.70
2018-08-09T16:17:42.710Z,3.10
2018-08-09T16:20:12.013Z,2.40
2018-08-09T16:22:41.093Z,2.97
2018-08-09T16:25:12.479Z,2.70
2018-08-09T16:27:40.917Z,3.37
2018-08-09T16:30:14.054Z,2.17
2018-08-09T16:32:43.341Z,2.17
2018-08-09T16:35:12.615Z,2.17
2018-08-09T16:37:41.908Z,2.10
2018-08-09T16:40:17.122Z,2.05
2018-08-09T16:42:48.605Z,2.13
2018-08-09T16:45:20.304Z,2.43
2018-08-09T16:47:52.474Z,1.77
2018-08-09T16:50:24.239Z,2.30
2018-08-09T16:52:56.004Z,1.90
2018-08-09T16:55:27.238Z,1.87
2018-08-09T16:57:55.879Z,2.15
2018-08-09T17:00:25.109Z,2.10
2018-08-09T17:02:54.507Z,2.20
2018-08-09T17:05:24.246Z,1.93
2018-08-09T17:07:52.761Z,1.80
2018-08-09T17:10:22.704Z,2.22
2018-08-09T17:12:51.404Z,2.75
2018-08-09T17:15:23.508Z,2.00
2018-08-09T17:17:52.711Z,2.13
2018-08-09T17:20:24.464Z,2.70
2018-08-09T17:22:52.927Z,2.40
2018-08-09T17:25:21.447Z,2.47
2018-08-09T17:27:50.385Z,3.10
2018-08-09T17:30:20.192Z,2.50
2018-08-09T17:32:48.721Z,1.90
2018-08-09T17:35:18.073Z,2.83
2018-08-09T17:37:46.521Z,2.60
2018-08-09T17:40:23.514Z,2.80
2018-08-09T17:42:52.972Z,2.40
2018-08-09T17:45:24.608Z,2.58
2018-08-09T17:47:53.182Z,2.50
2018-08-09T17:50:21.748Z,3.03
2018-08-09T17:52:50.327Z,2.70
2018-08-09T17:55:18.952Z,3.13
2018-08-09T17:57:47.713Z,2.50
2018-08-09T18:00:24.823Z,2.70
2018-08-09T18:02:53.790Z,2.47
2018-08-09T18:05:22.583Z,2.90
2018-08-09T18:07:51.365Z,2.50
2018-08-09T18:10:24.837Z,2.67
2018-08-09T18:12:54.794Z,2.47
2018-08-09T18:15:25.692Z,2.20
2018-08-09T18:17:54.623Z,2.27
2018-08-09T18:20:25.140Z,2.60
2018-08-09T18:22:53.725Z,2.47
2018-08-09T18:25:22.218Z,2.37
2018-08-09T18:27:50.804Z,2.90
2018-08-09T18:30:19.956Z,2.10
2018-08-09T18:32:48.533Z,1.97
2018-08-09T18:35:18.604Z,2.80
2018-08-09T18:37:47.034Z,2.60
2018-08-09T18:40:21.290Z,2.47
2018-08-09T18:42:49.822Z,2.40
2018-08-09T18:45:18.585Z,1.80
2018-08-09T18:47:47.150Z,2.53
2018-08-09T18:50:19.853Z,2.23
2018-08-09T18:52:48.375Z,2.07
2018-08-09T18:55:17.965Z,1.80
2018-08-09T18:57:46.424Z,2.30
2018-08-09T19:00:21.799Z,2.03
2018-08-09T19:02:52.042Z,2.10
2018-08-09T19:05:20.588Z,1.90
2018-08-09T19:07:49.118Z,1.80
2018-08-09T19:10:21.097Z,2.00
2018-08-09T19:12:50.144Z,1.70
2018-08-09T19:15:18.875Z,2.20
2018-08-09T19:17:47.412Z,2.00
2018-08-09T19:20:20.319Z,1.77
2018-08-09T19:22:48.894Z,1.60
2018-08-09T19:25:17.486Z,2.17
2018-08-09T19:27:46.028Z,1.80
2018-08-09T19:30:16.083Z,2.33
2018-08-09T19:32:44.633Z,2.37
2018-08-09T19:35:14.690Z,2.17
2018-08-09T19:37:43.237Z,1.90
2018-08-09T19:40:13.172Z,2.30
2018-08-09T19:42:41.803Z,2.53
2018-08-09T19:45:13.778Z,2.20
2018-08-09T19:47:42.326Z,2.77
2018-08-09T19:50:12.940Z,2.20
2018-08-09T19:52:43.962Z,2.20
2018-08-09T19:55:15.004Z,2.23
2018-08-09T19:57:44.691Z,2.07
2018-08-09T20:00:16.392Z,2.40
2018-08-09T20:02:46.339Z,2.33
2018-08-09T20:05:14.836Z,1.83
2018-08-09T20:07:43.962Z,1.90
2018-08-09T20:10:14.753Z,2.35
2018-08-09T20:12:44.061Z,2.13
2018-08-09T20:15:25.531Z,2.42
2018-08-09T20:17:54.610Z,2.10
2018-08-09T20:20:25.372Z,1.83
2018-08-09T20:22:53.906Z,2.80
2018-08-09T20:25:22.368Z,2.30
2018-08-09T20:27:50.821Z,2.10
2018-08-09T20:30:23.787Z,2.50
2018-08-09T20:32:52.259Z,1.90
2018-08-09T20:35:22.593Z,1.63
2018-08-09T20:37:51.323Z,2.03
2018-08-09T20:40:22.399Z,2.20
2018-08-09T20:42:51.806Z,1.83
2018-08-09T20:45:21.630Z,2.10
2018-08-09T20:47:50.432Z,2.27
2018-08-09T20:50:28.425Z,1.98
2018-08-09T20:52:56.897Z,1.67
2018-08-09T20:55:25.700Z,1.70
2018-08-09T20:57:55.764Z,2.10
2018-08-09T21:00:31.420Z,1.90
2018-08-09T21:03:00.683Z,2.00
2018-08-09T21:05:31.446Z,1.80
2018-08-09T21:08:00.472Z,1.83
2018-08-09T21:10:29.623Z,1.90
2018-08-09T21:12:58.349Z,1.80
2018-08-09T21:15:26.908Z,1.60
2018-08-09T21:17:55.370Z,1.90
2018-08-09T21:20:24.650Z,1.60
2018-08-09T21:22:53.100Z,1.57
2018-08-09T21:25:21.618Z,1.57
2018-08-09T21:27:50.385Z,1.80
2018-08-09T21:30:20.223Z,1.40
2018-08-09T21:32:49.195Z,1.70
2018-08-09T21:35:17.724Z,1.60
2018-08-09T21:37:46.479Z,1.60
2018-08-09T21:40:15.447Z,1.80
2018-08-09T21:42:44.578Z,1.80
2018-08-09T21:45:15.416Z,1.63
2018-08-09T21:47:43.872Z,1.80
2018-08-09T21:50:15.876Z,1.60
2018-08-09T21:52:44.383Z,1.30
2018-08-09T21:55:13.553Z,1.83
2018-08-09T21:57:43.559Z,2.05
2018-08-09T22:00:52.574Z,1.67
2018-08-09T22:03:24.897Z,1.67
2018-08-09T22:05:58.727Z,1.50
2018-08-09T22:08:32.983Z,1.47
2018-08-09T22:11:08.257Z,1.70
2018-08-09T22:13:42.008Z,1.67
2018-08-09T22:16:15.810Z,1.77
2018-08-09T22:18:49.715Z,1.80
2018-08-09T22:21:24.050Z,1.73
2018-08-09T22:23:52.615Z,1.57
2018-08-09T22:26:21.129Z,1.23
2018-08-09T22:28:49.624Z,1.60
2018-08-09T22:31:19.296Z,1.67
2018-08-09T22:33:47.785Z,1.80
2018-08-09T22:36:16.322Z,1.77
2018-08-09T22:38:44.804Z,2.10
2018-08-09T22:41:13.236Z,1.23
2018-08-09T22:43:41.732Z,1.30
2018-08-09T22:46:10.157Z,1.80
2018-08-09T22:48:38.631Z,1.47
2018-08-09T22:51:07.280Z,1.47
2018-08-09T22:53:36.181Z,1.50
2018-08-09T22:56:04.722Z,1.53
2018-08-09T22:58:34.254Z,1.30
2018-08-09T23:01:02.758Z,1.53
2018-08-09T23:03:31.310Z,1.60
2018-08-09T23:05:59.685Z,1.70
2018-08-09T23:08:28.119Z,1.30
2018-08-09T23:10:56.597Z,2.02
2018-08-09T23:13:25.008Z,1.70
2018-08-09T23:15:53.523Z,1.90
2018-08-09T23:18:22.035Z,1.60
2018-08-09T23:20:50.460Z,1.60
2018-08-09T23:23:18.920Z,1.80
2018-08-09T23:25:47.341Z,1.90
2018-08-09T23:28:15.960Z,1.60
2018-08-09T23:30:44.408Z,1.87
2018-08-09T23:33:12.857Z,1.30
2018-08-09T23:35:41.307Z,2.07
2018-08-09T23:38:09.741Z,1.20
2018-08-09T23:40:38.319Z,1.60
2018-08-09T23:43:06.746Z,1.63
2018-08-09T23:45:35.111Z,1.65
2018-08-09T23:48:03.603Z,1.60
2018-08-09T23:50:31.974Z,1.20
2018-08-09T23:53:00.404Z,1.57
2018-08-09T23:55:29.154Z,1.40
2018-08-09T23:57:57.682Z,1.27
